Sheikhupura Weather



Sheikhupura's Current Weather

Temprature 41o few clouds

few clouds

Rain: 0 %

Min Temprature41o
Max Temprature41o
Humidity34
Wind Speed4.1 m/h
Sun Rise05:00:18
Sun Set19:13:03
Current Time: 26-Jun-2019 15:42:33
Lat/Lon: 31.71, 73.99




Sheikhupura's Geo Location



Sheikhupura's Weather Forecast

Time Overall Temp Min Temp Max Temp Humidity Wind Speed Rain
26-Jun-2019 (Wed)
17:00:00 clear sky 41.220 41.220 43.350 13 5.06 m/h 0 %
20:00:00 light rain 37.350 37.350 38.947 21 0.86 m/h 56 %
23:00:00 light rain 36.880 36.880 37.940 23 1.94 m/h 6 %
27-Jun-2019 (Thu)
02:00:00 clear sky 35.150 35.150 35.679 26 1.21 m/h 0 %
05:00:00 clear sky 34.065 34.065 34.065 26 2.4 m/h 0 %
08:00:00 clear sky 38.150 38.150 38.150 19 1.49 m/h 0 %
11:00:00 scattered clouds 42.774 42.774 42.774 14 1.42 m/h 0 %
14:00:00 scattered clouds 44.950 44.950 44.950 11 1.9 m/h 0 %
17:00:00 few clouds 45.080 45.080 45.080 10 3.95 m/h 0 %
20:00:00 light rain 39.994 39.994 39.994 16 4.26 m/h 6 %
23:00:00 few clouds 37.535 37.535 37.535 23 5.96 m/h 0 %
28-Jun-2019 (Fri)
02:00:00 clear sky 35.828 35.828 35.828 24 3.11 m/h 0 %
05:00:00 clear sky 34.428 34.428 34.428 28 3.61 m/h 0 %
08:00:00 clear sky 39.259 39.259 39.259 23 5.5 m/h 0 %
11:00:00 few clouds 43.325 43.325 43.325 17 3.74 m/h 0 %
14:00:00 scattered clouds 45.631 45.631 45.631 13 3.27 m/h 0 %
17:00:00 light rain 38.950 38.950 38.950 18 11.17 m/h 38 %
20:00:00 light rain 39.150 39.150 39.150 19 2.75 m/h 88 %
23:00:00 clear sky 37.672 37.672 37.672 21 3.7 m/h 0 %
29-Jun-2019 (Sat)
02:00:00 clear sky 35.772 35.772 35.772 27 3.66 m/h 0 %
05:00:00 clear sky 34.629 34.629 34.629 29 2.51 m/h 0 %
08:00:00 clear sky 38.717 38.717 38.717 25 4.92 m/h 0 %
11:00:00 clear sky 43.950 43.950 43.950 18 4.68 m/h 0 %
14:00:00 clear sky 46.750 46.750 46.750 12 4.37 m/h 0 %
17:00:00 clear sky 46.791 46.791 46.791 11 5.73 m/h 0 %
20:00:00 clear sky 42.550 42.550 42.550 14 3.37 m/h 0 %
23:00:00 clear sky 39.650 39.650 39.650 18 2.19 m/h 0 %
30-Jun-2019 (Sun)
02:00:00 clear sky 37.106 37.106 37.106 20 2.37 m/h 0 %
05:00:00 clear sky 35.582 35.582 35.582 24 1.86 m/h 0 %
08:00:00 clear sky 39.272 39.272 39.272 23 4.03 m/h 0 %
11:00:00 clear sky 44.018 44.018 44.018 17 4.03 m/h 0 %
14:00:00 clear sky 47.109 47.109 47.109 12 4.13 m/h 0 %
17:00:00 clear sky 46.950 46.950 46.950 11 5.46 m/h 0 %
20:00:00 scattered clouds 41.450 41.450 41.450 15 2.74 m/h 0 %
23:00:00 few clouds 38.650 38.650 38.650 19 3.46 m/h 0 %
01-Jul-2019 (Mon)
02:00:00 clear sky 37.550 37.550 37.550 22 2.36 m/h 0 %
05:00:00 clear sky 35.435 35.435 35.435 24 2.57 m/h 0 %
08:00:00 clear sky 39.250 39.250 39.250 24 3.4 m/h 0 %
11:00:00 clear sky 44.150 44.150 44.150 20 3.68 m/h 0 %
14:00:00 clear sky 47.950 47.950 47.950 12 4.42 m/h 0 %

Famous Cities (60)